createdAt,value
2023-01-13T00:00:09.199Z,9.00
2023-01-13T00:02:36.203Z,9.00
2023-01-13T00:05:03.643Z,8.90
2023-01-13T00:07:30.415Z,8.90
2023-01-13T00:09:57.083Z,8.90
2023-01-13T00:12:23.706Z,8.80
2023-01-13T00:14:50.368Z,8.70
2023-01-13T00:17:17.056Z,8.70
2023-01-13T00:19:44.643Z,8.60
2023-01-13T00:22:11.300Z,8.60
2023-01-13T00:24:38.023Z,8.60
2023-01-13T00:27:04.737Z,8.50
2023-01-13T00:29:31.451Z,8.60
2023-01-13T00:31:58.213Z,8.50
2023-01-13T00:34:24.833Z,8.50
2023-01-13T00:36:51.445Z,8.50
2023-01-13T00:39:18.055Z,8.50
2023-01-13T00:42:03.334Z,8.50
2023-01-13T00:44:29.970Z,8.50
2023-01-13T00:46:56.627Z,8.60
2023-01-13T00:49:23.291Z,8.60
2023-01-13T00:51:49.932Z,8.60
2023-01-13T00:54:16.636Z,8.60
2023-01-13T00:56:43.263Z,8.60
2023-01-13T00:59:14.046Z,8.60
2023-01-13T01:01:41.618Z,8.60
2023-01-13T01:04:08.598Z,8.60
2023-01-13T01:06:35.309Z,8.60
2023-01-13T01:09:02.242Z,8.60
2023-01-13T01:11:31.193Z,8.70
2023-01-13T01:14:00.565Z,8.70
2023-01-13T01:16:29.262Z,8.60
2023-01-13T01:18:56.313Z,8.60
2023-01-13T01:21:25.529Z,8.70
2023-01-13T01:23:52.205Z,8.60
2023-01-13T01:26:21.394Z,8.60
2023-01-13T01:28:48.659Z,8.50
2023-01-13T01:31:27.424Z,8.50
2023-01-13T01:33:54.878Z,8.60
2023-01-13T01:36:23.629Z,8.50
2023-01-13T01:38:50.596Z,8.50
2023-01-13T01:41:21.557Z,8.50
2023-01-13T01:44:00.298Z,8.50
2023-01-13T01:46:40.890Z,8.50
2023-01-13T01:49:17.082Z,8.50
2023-01-13T01:51:58.263Z,8.50
2023-01-13T01:54:32.002Z,8.60
2023-01-13T01:56:58.964Z,8.60
2023-01-13T01:59:27.458Z,8.60
2023-01-13T02:01:54.401Z,8.50
2023-01-13T02:04:26.454Z,8.50
2023-01-13T02:06:53.979Z,8.50
2023-01-13T02:09:20.604Z,8.50
2023-01-13T02:12:05.945Z,8.40
2023-01-13T02:14:34.405Z,8.50
2023-01-13T02:17:30.083Z,8.40
2023-01-13T02:20:24.225Z,8.40
2023-01-13T02:23:30.140Z,8.40
2023-01-13T02:26:32.425Z,8.40
2023-01-13T02:30:06.632Z,8.40
2023-01-13T02:33:03.660Z,8.30
2023-01-13T02:35:41.981Z,8.40
2023-01-13T02:38:12.570Z,8.40
2023-01-13T02:40:56.818Z,8.40
2023-01-13T02:43:44.668Z,8.40
2023-01-13T02:46:22.205Z,8.40
2023-01-13T02:48:52.755Z,8.40
2023-01-13T02:51:24.071Z,8.40
2023-01-13T02:54:11.384Z,8.40
2023-01-13T02:56:42.065Z,8.40
2023-01-13T02:59:09.871Z,8.40
2023-01-13T03:01:37.122Z,8.40
2023-01-13T03:04:32.116Z,8.40
2023-01-13T03:07:12.804Z,8.40
2023-01-13T03:09:51.586Z,8.30
2023-01-13T03:12:31.483Z,8.30
2023-01-13T03:15:10.975Z,8.50
2023-01-13T03:17:42.651Z,8.40
2023-01-13T03:20:37.422Z,8.50
2023-01-13T03:23:18.711Z,8.40
2023-01-13T03:26:01.786Z,8.40
2023-01-13T03:28:33.493Z,8.50
2023-01-13T03:31:06.720Z,8.60
2023-01-13T03:33:45.702Z,8.60
2023-01-13T03:36:16.689Z,8.60
2023-01-13T03:38:49.592Z,8.60
2023-01-13T03:41:27.487Z,8.50
2023-01-13T03:44:24.439Z,8.50
2023-01-13T03:47:03.911Z,8.60
2023-01-13T03:49:38.401Z,8.60
2023-01-13T03:52:08.498Z,8.60
2023-01-13T03:54:45.060Z,8.50
2023-01-13T03:57:15.476Z,8.50
2023-01-13T03:59:45.820Z,8.40
2023-01-13T04:03:00.803Z,8.40
2023-01-13T04:05:28.464Z,8.40
2023-01-13T04:08:14.023Z,8.30
2023-01-13T04:10:55.042Z,8.30
2023-01-13T04:13:24.477Z,8.30
2023-01-13T04:15:51.412Z,8.20
2023-01-13T04:18:22.344Z,8.30
2023-01-13T04:20:51.052Z,8.20
2023-01-13T04:23:18.856Z,8.20
2023-01-13T04:25:46.236Z,8.30
2023-01-13T04:28:14.224Z,8.20
2023-01-13T04:30:42.442Z,8.20
2023-01-13T04:33:09.205Z,8.20
2023-01-13T04:35:36.792Z,8.20
2023-01-13T04:38:09.204Z,8.10
2023-01-13T04:40:36.339Z,8.10
2023-01-13T04:43:03.821Z,8.00
2023-01-13T04:45:30.972Z,8.00
2023-01-13T04:47:57.944Z,8.00
2023-01-13T04:50:25.297Z,8.00
2023-01-13T04:52:53.436Z,8.00
2023-01-13T04:55:21.835Z,8.00
2023-01-13T04:57:48.721Z,8.00
2023-01-13T05:00:18.166Z,8.00
2023-01-13T05:02:44.865Z,8.10
2023-01-13T05:05:11.520Z,8.10
2023-01-13T05:07:38.399Z,8.10
2023-01-13T05:10:05.574Z,8.00
2023-01-13T05:12:51.065Z,8.10
2023-01-13T05:15:36.650Z,8.10
2023-01-13T05:18:03.820Z,8.10
2023-01-13T05:20:30.455Z,8.10
2023-01-13T05:23:15.468Z,8.10
2023-01-13T05:25:44.538Z,8.20
2023-01-13T05:28:11.639Z,8.20
2023-01-13T05:30:44.065Z,8.30
2023-01-13T05:33:12.370Z,8.30
2023-01-13T05:35:43.171Z,8.30
2023-01-13T05:38:10.263Z,8.30
2023-01-13T05:40:59.483Z,8.30
2023-01-13T05:43:27.094Z,8.30
2023-01-13T05:46:01.231Z,8.10
2023-01-13T05:48:33.521Z,8.10
2023-01-13T05:51:02.216Z,8.10
2023-01-13T05:53:29.262Z,8.10
2023-01-13T05:55:56.526Z,8.00
2023-01-13T05:58:25.430Z,8.00
2023-01-13T06:00:52.874Z,8.00
2023-01-13T06:03:20.168Z,7.90
2023-01-13T06:05:47.722Z,7.90
2023-01-13T06:08:14.671Z,7.90
2023-01-13T06:10:41.387Z,7.80
2023-01-13T06:13:07.978Z,7.90
2023-01-13T06:15:34.614Z,7.80
2023-01-13T06:18:04.906Z,7.80
2023-01-13T06:20:32.110Z,7.90
2023-01-13T06:22:59.414Z,7.90
2023-01-13T06:25:33.396Z,7.90
2023-01-13T06:28:00.561Z,8.00
2023-01-13T06:30:32.702Z,7.90
2023-01-13T06:33:02.484Z,7.90
2023-01-13T06:35:34.148Z,8.00
2023-01-13T06:38:03.541Z,8.10
2023-01-13T06:40:30.444Z,8.00
2023-01-13T06:43:17.294Z,8.00
2023-01-13T06:45:55.098Z,8.00
2023-01-13T06:48:32.955Z,8.00
2023-01-13T06:50:59.895Z,7.90
2023-01-13T06:53:26.578Z,7.90
2023-01-13T06:55:53.164Z,7.90
2023-01-13T06:58:19.835Z,8.00
2023-01-13T07:00:51.118Z,8.00
2023-01-13T07:03:19.639Z,8.00
2023-01-13T07:05:53.031Z,8.00
2023-01-13T07:08:19.876Z,8.00
2023-01-13T07:10:46.645Z,8.10
2023-01-13T07:13:31.997Z,8.10
2023-01-13T07:16:01.254Z,8.10
2023-01-13T07:18:31.484Z,8.10
2023-01-13T07:21:00.690Z,8.10
2023-01-13T07:23:28.798Z,8.10
2023-01-13T07:25:59.905Z,8.10
2023-01-13T07:28:28.510Z,8.10
2023-01-13T07:30:55.813Z,8.20
2023-01-13T07:33:22.877Z,8.10
2023-01-13T07:36:00.004Z,8.20
2023-01-13T07:38:27.507Z,8.20
2023-01-13T07:40:54.837Z,8.20
2023-01-13T07:43:34.046Z,8.20
2023-01-13T07:46:06.055Z,8.20
2023-01-13T07:48:34.279Z,8.20
2023-01-13T07:51:06.639Z,8.20
2023-01-13T07:53:33.909Z,8.30
2023-01-13T07:56:01.288Z,8.20
2023-01-13T07:58:28.866Z,8.30
2023-01-13T08:00:56.443Z,8.30
2023-01-13T08:03:23.440Z,8.30
2023-01-13T08:05:50.088Z,8.40
2023-01-13T08:08:17.042Z,8.40
2023-01-13T08:10:43.686Z,8.40
2023-01-13T08:13:22.629Z,8.30
2023-01-13T08:15:51.588Z,8.30
2023-01-13T08:18:21.977Z,8.40
2023-01-13T08:20:49.711Z,8.40
2023-01-13T08:23:16.555Z,8.40
2023-01-13T08:25:43.242Z,8.40
2023-01-13T08:28:10.070Z,8.40
2023-01-13T08:30:36.885Z,8.40
2023-01-13T08:33:07.708Z,8.40
2023-01-13T08:35:39.847Z,8.40
2023-01-13T08:38:08.016Z,8.40
2023-01-13T08:40:35.165Z,8.40
2023-01-13T08:43:03.138Z,8.30
2023-01-13T08:45:29.862Z,8.30
2023-01-13T08:47:56.550Z,8.30
2023-01-13T08:50:23.412Z,8.30
2023-01-13T08:52:50.094Z,8.20
2023-01-13T08:55:16.754Z,8.20
2023-01-13T08:57:43.524Z,8.20
2023-01-13T09:00:11.142Z,8.10
2023-01-13T09:02:38.617Z,8.10
2023-01-13T09:05:07.267Z,8.00
2023-01-13T09:07:35.669Z,8.00
2023-01-13T09:10:05.302Z,8.00
2023-01-13T09:12:50.494Z,8.00
2023-01-13T09:15:20.200Z,8.00
2023-01-13T09:17:47.833Z,8.00
2023-01-13T09:20:14.808Z,7.90
2023-01-13T09:22:41.723Z,7.90
2023-01-13T09:25:08.803Z,7.90
2023-01-13T09:27:35.554Z,7.80
2023-01-13T09:30:02.243Z,7.90
2023-01-13T09:32:28.836Z,7.80
2023-01-13T09:35:01.323Z,7.80
2023-01-13T09:37:37.091Z,7.90
2023-01-13T09:40:17.170Z,7.80
2023-01-13T09:43:05.881Z,7.80
2023-01-13T09:45:51.416Z,7.80
2023-01-13T09:48:29.432Z,7.90
2023-01-13T09:51:16.924Z,7.90
2023-01-13T09:53:50.971Z,7.90
2023-01-13T09:56:17.588Z,7.90
2023-01-13T09:58:46.152Z,8.00
2023-01-13T10:01:36.085Z,8.00
2023-01-13T10:04:11.976Z,7.90
2023-01-13T10:06:43.798Z,7.90
2023-01-13T10:09:18.106Z,7.90
2023-01-13T10:12:05.716Z,8.00
2023-01-13T10:14:42.778Z,8.00
2023-01-13T10:17:31.707Z,8.10
2023-01-13T10:20:07.273Z,8.10
2023-01-13T10:22:57.996Z,8.10
2023-01-13T10:26:10.771Z,8.10
2023-01-13T10:28:37.463Z,8.10
2023-01-13T10:31:12.260Z,8.20
2023-01-13T10:33:39.035Z,8.20
2023-01-13T10:36:17.901Z,8.20
2023-01-13T10:38:49.963Z,8.20
2023-01-13T10:41:16.884Z,8.10
2023-01-13T10:44:05.600Z,8.10
2023-01-13T10:46:49.522Z,8.10
2023-01-13T10:49:31.407Z,8.00
2023-01-13T10:51:59.404Z,8.10
2023-01-13T10:54:27.116Z,8.10
2023-01-13T10:57:14.481Z,8.20
2023-01-13T10:59:41.190Z,8.20
2023-01-13T11:02:27.636Z,8.20
2023-01-13T11:04:54.504Z,8.20
2023-01-13T11:07:30.379Z,8.30
2023-01-13T11:10:09.272Z,8.30
2023-01-13T11:12:50.732Z,8.30
2023-01-13T11:15:22.718Z,8.40
2023-01-13T11:18:27.391Z,8.40
2023-01-13T11:20:57.131Z,8.30
2023-01-13T11:23:28.706Z,8.40
2023-01-13T11:26:02.528Z,8.40
2023-01-13T11:28:55.487Z,8.40
2023-01-13T11:31:33.493Z,8.40
2023-01-13T11:34:07.983Z,8.50
2023-01-13T11:36:39.833Z,8.50
2023-01-13T11:39:25.859Z,8.60
2023-01-13T11:42:21.553Z,8.60
2023-01-13T11:45:06.506Z,8.70
2023-01-13T11:47:35.589Z,8.70
2023-01-13T11:50:03.697Z,8.70
2023-01-13T11:52:49.158Z,8.70
2023-01-13T11:55:55.671Z,8.70
2023-01-13T11:58:54.045Z,8.70
2023-01-13T12:01:36.401Z,8.70
2023-01-13T12:04:26.313Z,8.60
2023-01-13T12:07:20.231Z,8.60
2023-01-13T12:09:48.014Z,8.60
2023-01-13T12:12:32.928Z,8.60
2023-01-13T12:15:08.002Z,8.50
2023-01-13T12:17:47.020Z,8.60
2023-01-13T12:20:38.058Z,8.60
2023-01-13T12:23:13.170Z,8.70
2023-01-13T12:25:54.499Z,8.80
2023-01-13T12:28:28.316Z,8.80
2023-01-13T12:31:03.614Z,8.90
2023-01-13T12:34:07.307Z,8.90
2023-01-13T12:36:52.684Z,9.00
2023-01-13T12:39:26.844Z,9.00
2023-01-13T12:42:13.732Z,9.00
2023-01-13T12:45:11.286Z,9.10
2023-01-13T12:47:43.611Z,9.10
2023-01-13T12:50:22.118Z,9.10
2023-01-13T12:52:52.333Z,9.10
2023-01-13T12:55:29.110Z,9.10
2023-01-13T12:57:58.888Z,9.10
2023-01-13T13:00:52.305Z,9.10
2023-01-13T13:03:31.480Z,9.10
2023-01-13T13:06:04.478Z,9.10
2023-01-13T13:09:13.191Z,9.10
2023-01-13T13:12:03.918Z,9.10
2023-01-13T13:14:39.806Z,9.20
2023-01-13T13:17:28.456Z,9.20
2023-01-13T13:19:56.507Z,9.20
2023-01-13T13:22:28.894Z,9.20
2023-01-13T13:24:55.774Z,9.20
2023-01-13T13:27:25.385Z,9.20
2023-01-13T13:30:09.373Z,9.20
2023-01-13T13:33:18.739Z,9.20
2023-01-13T13:36:02.607Z,9.20
2023-01-13T13:39:08.378Z,9.20
2023-01-13T13:41:55.452Z,9.30
2023-01-13T13:45:04.174Z,9.30
2023-01-13T13:47:38.356Z,9.30
2023-01-13T13:50:15.120Z,9.30
2023-01-13T13:52:54.352Z,9.30
2023-01-13T13:55:24.263Z,9.30
2023-01-13T13:57:53.364Z,9.20
2023-01-13T14:00:34.853Z,9.20
2023-01-13T14:03:07.972Z,9.20
2023-01-13T14:05:38.647Z,9.20
2023-01-13T14:08:17.797Z,9.30
2023-01-13T14:10:46.497Z,9.30
2023-01-13T14:13:25.838Z,9.20
2023-01-13T14:16:03.216Z,9.30
2023-01-13T14:18:41.366Z,9.30
2023-01-13T14:21:22.140Z,9.30
2023-01-13T14:24:00.323Z,9.30
2023-01-13T14:26:30.621Z,9.30
2023-01-13T14:29:00.638Z,9.30
2023-01-13T14:31:28.028Z,9.30
2023-01-13T14:33:57.503Z,9.30
2023-01-13T14:36:37.971Z,9.30
2023-01-13T14:39:05.660Z,9.30
2023-01-13T14:41:36.672Z,9.30
2023-01-13T14:44:35.888Z,9.30
2023-01-13T14:47:16.870Z,9.30
2023-01-13T14:50:02.353Z,9.30
2023-01-13T14:52:49.059Z,9.30
2023-01-13T14:55:21.382Z,9.30
2023-01-13T14:57:48.267Z,9.30
2023-01-13T15:00:14.946Z,9.30
2023-01-13T15:02:44.710Z,9.20
2023-01-13T15:05:26.170Z,9.20
2023-01-13T15:07:55.580Z,9.20
2023-01-13T15:10:26.013Z,9.20
2023-01-13T15:12:55.802Z,9.20
2023-01-13T15:15:40.360Z,9.20
2023-01-13T15:18:15.351Z,9.20
2023-01-13T15:20:42.579Z,9.20
2023-01-13T15:23:09.254Z,9.10
2023-01-13T15:25:38.203Z,9.10
2023-01-13T15:28:06.069Z,9.10
2023-01-13T15:30:32.894Z,9.10
2023-01-13T15:32:59.879Z,9.10
2023-01-13T15:35:29.013Z,9.10
2023-01-13T15:37:56.672Z,9.20
2023-01-13T15:40:26.634Z,9.20
2023-01-13T15:43:12.214Z,9.10
2023-01-13T15:45:57.299Z,9.10
2023-01-13T15:48:26.579Z,9.00
2023-01-13T15:50:56.387Z,9.00
2023-01-13T15:53:23.087Z,9.00
2023-01-13T15:55:53.985Z,9.00
2023-01-13T15:58:24.037Z,9.00
2023-01-13T16:00:50.646Z,9.00
2023-01-13T16:03:17.711Z,9.00
2023-01-13T16:05:45.225Z,9.00
2023-01-13T16:08:15.541Z,9.00
2023-01-13T16:10:43.152Z,9.00
2023-01-13T16:13:10.018Z,9.00
2023-01-13T16:15:36.800Z,9.00
2023-01-13T16:18:04.824Z,9.00
2023-01-13T16:20:31.498Z,9.00
2023-01-13T16:22:58.143Z,9.00
2023-01-13T16:25:27.029Z,9.00
2023-01-13T16:27:53.910Z,8.90
2023-01-13T16:30:37.222Z,8.90
2023-01-13T16:33:04.309Z,8.90
2023-01-13T16:35:35.604Z,8.90
2023-01-13T16:38:19.274Z,8.90
2023-01-13T16:40:46.840Z,8.90
2023-01-13T16:43:13.745Z,8.90
2023-01-13T16:45:41.347Z,8.90
2023-01-13T16:48:19.333Z,8.90
2023-01-13T16:50:46.369Z,8.90
2023-01-13T16:53:13.018Z,8.90
2023-01-13T16:55:41.130Z,8.90
2023-01-13T16:58:16.303Z,8.90
2023-01-13T17:00:43.215Z,8.90
2023-01-13T17:03:10.484Z,8.90
2023-01-13T17:05:43.268Z,8.90
2023-01-13T17:08:19.009Z,8.90
2023-01-13T17:10:46.857Z,8.80
2023-01-13T17:13:17.028Z,8.60
2023-01-13T17:15:45.259Z,8.20
2023-01-13T17:18:13.367Z,7.90
2023-01-13T17:20:40.363Z,7.90
2023-01-13T17:23:07.021Z,7.80
2023-01-13T17:25:33.666Z,7.70
2023-01-13T17:28:00.274Z,7.80
2023-01-13T17:30:26.879Z,7.80
2023-01-13T17:32:53.500Z,7.80
2023-01-13T17:35:24.547Z,7.80
2023-01-13T17:37:52.444Z,7.80
2023-01-13T17:40:19.243Z,7.70
2023-01-13T17:42:45.916Z,7.60
2023-01-13T17:45:12.551Z,7.40
2023-01-13T17:47:39.171Z,7.30
2023-01-13T17:50:06.327Z,7.20
2023-01-13T17:52:34.233Z,7.20
2023-01-13T17:55:00.853Z,7.30
2023-01-13T17:57:27.596Z,7.40
2023-01-13T17:59:54.166Z,7.50
2023-01-13T18:02:20.879Z,7.50
2023-01-13T18:04:47.506Z,7.50
2023-01-13T18:07:14.227Z,7.60
2023-01-13T18:09:40.795Z,7.60
2023-01-13T18:12:07.486Z,7.60
2023-01-13T18:14:34.861Z,7.70
2023-01-13T18:17:01.539Z,7.70
2023-01-13T18:19:46.856Z,7.70
2023-01-13T18:22:32.814Z,7.80
2023-01-13T18:25:18.410Z,7.80
2023-01-13T18:27:45.255Z,7.80
2023-01-13T18:30:12.730Z,7.80
2023-01-13T18:32:42.073Z,7.90
2023-01-13T18:35:10.372Z,7.80
2023-01-13T18:37:42.254Z,7.90
2023-01-13T18:40:11.626Z,7.80
2023-01-13T18:42:54.856Z,7.70
2023-01-13T18:45:27.945Z,7.70
2023-01-13T18:47:56.321Z,7.60
2023-01-13T18:50:24.130Z,7.60
2023-01-13T18:52:51.544Z,7.60
2023-01-13T18:55:18.293Z,7.50
2023-01-13T18:57:45.108Z,7.60
2023-01-13T19:00:14.530Z,7.60
2023-01-13T19:02:41.291Z,7.60
2023-01-13T19:05:09.271Z,7.60
2023-01-13T19:07:36.714Z,7.60
2023-01-13T19:10:04.813Z,7.60
2023-01-13T19:12:33.578Z,7.60
2023-01-13T19:15:01.458Z,7.60
2023-01-13T19:17:31.740Z,7.60
2023-01-13T19:19:59.003Z,7.50
2023-01-13T19:22:30.133Z,7.50
2023-01-13T19:24:58.186Z,7.50
2023-01-13T19:27:27.393Z,7.50
2023-01-13T19:29:57.386Z,7.50
2023-01-13T19:32:24.561Z,7.60
2023-01-13T19:34:51.615Z,7.60
2023-01-13T19:37:19.446Z,7.70
2023-01-13T19:39:46.135Z,7.80
2023-01-13T19:42:32.097Z,7.80
2023-01-13T19:45:17.613Z,7.80
2023-01-13T19:47:45.610Z,7.70
2023-01-13T19:50:13.634Z,7.70
2023-01-13T19:52:41.650Z,7.70
2023-01-13T19:55:09.466Z,7.70
2023-01-13T19:57:36.935Z,7.60
2023-01-13T20:00:05.344Z,7.70
2023-01-13T20:02:32.019Z,7.70
2023-01-13T20:05:02.067Z,7.70
2023-01-13T20:07:30.745Z,7.70
2023-01-13T20:09:57.719Z,7.70
2023-01-13T20:12:28.492Z,7.70
2023-01-13T20:14:55.262Z,7.70
2023-01-13T20:17:25.478Z,7.70
2023-01-13T20:19:52.303Z,7.60
2023-01-13T20:22:19.019Z,7.60
2023-01-13T20:24:45.763Z,7.50
2023-01-13T20:27:12.502Z,7.50
2023-01-13T20:29:39.590Z,7.50
2023-01-13T20:32:06.265Z,7.50
2023-01-13T20:34:33.104Z,7.50
2023-01-13T20:37:00.260Z,7.50
2023-01-13T20:39:26.983Z,7.40
2023-01-13T20:42:13.188Z,7.40
2023-01-13T20:44:41.425Z,7.50
2023-01-13T20:47:08.141Z,7.50
2023-01-13T20:49:36.755Z,7.60
2023-01-13T20:52:08.974Z,7.50
2023-01-13T20:54:40.308Z,7.50
2023-01-13T20:57:09.768Z,7.60
2023-01-13T20:59:37.394Z,7.60
2023-01-13T21:02:05.789Z,7.60
2023-01-13T21:04:32.364Z,7.50
2023-01-13T21:06:59.010Z,7.60
2023-01-13T21:09:27.189Z,7.60
2023-01-13T21:12:13.083Z,7.60
2023-01-13T21:14:58.437Z,7.60
2023-01-13T21:17:43.883Z,7.70
2023-01-13T21:20:12.603Z,7.70
2023-01-13T21:22:40.651Z,7.80
2023-01-13T21:25:07.648Z,7.80
2023-01-13T21:27:34.656Z,7.80
2023-01-13T21:30:01.358Z,7.90
2023-01-13T21:32:28.014Z,7.90
2023-01-13T21:34:54.712Z,7.80
2023-01-13T21:37:22.069Z,7.80
2023-01-13T21:39:48.927Z,7.90
2023-01-13T21:42:34.570Z,7.80
2023-01-13T21:45:20.453Z,7.90
2023-01-13T21:47:50.236Z,7.80
2023-01-13T21:50:22.447Z,7.90
2023-01-13T21:52:50.414Z,7.90
2023-01-13T21:55:17.196Z,8.00
2023-01-13T21:57:47.770Z,7.90
2023-01-13T22:00:15.680Z,7.80
2023-01-13T22:02:43.074Z,7.90
2023-01-13T22:05:11.443Z,8.00
2023-01-13T22:07:39.331Z,7.90
2023-01-13T22:10:08.412Z,7.90
2023-01-13T22:12:35.808Z,8.00
2023-01-13T22:15:02.756Z,8.00
2023-01-13T22:17:31.461Z,8.00
2023-01-13T22:19:59.101Z,8.00
2023-01-13T22:22:26.347Z,8.10
2023-01-13T22:24:53.816Z,8.10
2023-01-13T23:02:46.796Z,8.10
2023-01-13T23:05:13.912Z,8.20
2023-01-13T23:07:40.828Z,8.10
2023-01-13T23:10:07.727Z,8.20
2023-01-13T23:12:34.344Z,8.10
2023-01-13T23:15:01.001Z,8.20
2023-01-13T23:17:27.635Z,8.20
2023-01-13T23:19:54.239Z,8.20
2023-01-13T23:22:20.833Z,8.20
2023-01-13T23:24:47.507Z,8.20
2023-01-13T23:27:14.082Z,8.20
2023-01-13T23:29:40.788Z,8.20
2023-01-13T23:32:07.449Z,8.10
2023-01-13T23:34:34.111Z,8.20
2023-01-13T23:37:00.851Z,8.10
2023-01-13T23:39:27.427Z,8.20
2023-01-13T23:41:54.787Z,8.10
2023-01-13T23:44:21.401Z,8.10
2023-01-13T23:46:48.013Z,8.00
2023-01-13T23:49:14.695Z,8.00
2023-01-13T23:51:41.330Z,8.00
2023-01-13T23:54:08.167Z,8.00
2023-01-13T23:56:38.997Z,7.90
2023-01-13T23:59:05.655Z,8.00
